Time;durP1;ratioP1;P1;durP2;ratioP2;P2;SDS_P1;SDS_P2;PMS_P1;PMS_P2;Temp;Humidity;BMP_temperature;BMP_pressure;BME280_temperature;BME280_humidity;BME280_pressure;Samples;Min_cycle;Max_cycle;Signal;HPM_P1;HPM_P2
2023/06/28 00:02:02;;;;;;;11.35;8.23;;;;;;;19.30;91.19;94817.09;5146419;27;20196;-68
2023/06/28 00:04:28;;;;;;;8.32;7.55;;;;;;;19.34;91.44;94805.63;5143838;27;20203;-67
2023/06/28 00:06:56;;;;;;;7.75;7.00;;;;;;;19.51;90.88;94807.03;5142593;27;20231;-68
2023/06/28 00:09:23;;;;;;;8.30;7.60;;;;;;;19.46;90.24;94809.91;5143753;27;20223;-67
2023/06/28 00:11:50;;;;;;;8.15;7.35;;;;;;;19.41;90.76;94811.16;5144412;27;20266;-68
2023/06/28 00:14:16;;;;;;;8.18;7.35;;;;;;;19.39;89.75;94800.97;5145608;27;20319;-68
2023/06/28 00:16:43;;;;;;;9.20;7.88;;;;;;;19.27;89.44;94809.59;5148191;27;20272;-68
2023/06/28 00:19:10;;;;;;;8.13;7.53;;;;;;;19.19;90.48;94814.47;5143539;27;20247;-67
2023/06/28 00:21:36;;;;;;;9.20;7.45;;;;;;;19.16;90.66;94804.38;5145043;27;20280;-68
2023/06/28 00:24:05;;;;;;;8.07;7.47;;;;;;;19.12;91.18;94802.94;5140581;27;20195;-67
2023/06/28 00:26:31;;;;;;;8.75;7.40;;;;;;;19.17;91.06;94811.16;5145884;27;20247;-68
2023/06/28 00:28:58;;;;;;;8.52;7.90;;;;;;;19.13;90.87;94804.59;5144527;27;20744;-67
2023/06/28 00:31:25;;;;;;;7.63;7.03;;;;;;;19.02;91.39;94803.63;5146438;27;20651;-67
2023/06/28 00:33:51;;;;;;;8.10;7.50;;;;;;;18.94;91.80;94811.03;5142820;27;20276;-68
2023/06/28 00:36:18;;;;;;;8.35;7.50;;;;;;;18.93;92.57;94811.97;5143123;27;20673;-67
2023/06/28 00:38:45;;;;;;;9.15;8.43;;;;;;;18.92;92.24;94806.94;5144159;27;20647;-68
2023/06/28 00:41:13;;;;;;;8.70;7.90;;;;;;;18.99;91.33;94814.13;5145101;27;20191;-68
2023/06/28 00:43:39;;;;;;;9.13;8.30;;;;;;;18.86;92.35;94818.47;5145571;27;20621;-67
2023/06/28 00:46:06;;;;;;;8.90;8.10;;;;;;;18.85;92.44;94816.00;5147340;27;20207;-67
2023/06/28 00:48:33;;;;;;;9.20;8.35;;;;;;;18.77;93.08;94826.84;5145016;27;20267;-68
2023/06/28 00:51:00;;;;;;;9.20;8.52;;;;;;;18.78;92.95;94820.78;5146521;27;20724;-67
2023/06/28 00:53:27;;;;;;;8.80;8.18;;;;;;;18.81;91.85;94819.72;5147023;27;20195;-68
2023/06/28 00:55:56;;;;;;;8.15;7.53;;;;;;;18.81;91.78;94817.97;5146016;27;20252;-67
2023/06/28 00:58:25;;;;;;;8.93;8.23;;;;;;;18.80;91.30;94818.09;5145576;27;20252;-68
2023/06/28 01:00:52;;;;;;;8.23;7.70;;;;;;;18.82;90.83;94822.19;5147430;27;20235;-68
2023/06/28 01:03:19;;;;;;;9.82;9.02;;;;;;;18.65;91.81;94815.66;5146229;27;20223;-67
2023/06/28 01:05:49;;;;;;;10.80;8.18;;;;;;;18.69;92.56;94826.56;5145451;27;20235;-68
2023/06/28 01:08:18;;;;;;;10.88;7.85;;;;;;;18.65;92.06;94820.78;5147425;27;20256;-68
2023/06/28 01:10:45;;;;;;;9.68;8.00;;;;;;;18.65;92.18;94822.53;5145596;27;20897;-68
2023/06/28 01:13:12;;;;;;;9.13;8.43;;;;;;;18.65;92.10;94820.78;5148292;27;20238;-68
2023/06/28 01:15:40;;;;;;;11.65;9.27;;;;;;;18.72;91.44;94826.34;5143882;27;20648;-68
2023/06/28 01:18:07;;;;;;;9.82;8.82;;;;;;;18.72;91.40;94820.38;5148299;27;21684;-68
2023/06/28 01:20:33;;;;;;;11.90;9.32;;;;;;;18.74;90.69;94819.34;5144040;27;20655;-68
2023/06/28 01:23:02;;;;;;;10.85;9.73;;;;;;;18.74;90.70;94824.50;5146116;27;20654;-68
2023/06/28 01:25:29;;;;;;;10.13;9.20;;;;;;;18.72;90.71;94825.53;5140886;27;20245;-68
2023/06/28 01:27:57;;;;;;;11.05;9.98;;;;;;;18.66;90.48;94819.88;5147714;27;20657;-68
2023/06/28 01:30:25;;;;;;;10.52;9.63;;;;;;;18.67;90.72;94815.53;5141873;27;20230;-68
2023/06/28 01:32:52;;;;;;;13.02;10.02;;;;;;;18.58;91.05;94824.69;5145893;27;20232;-68
2023/06/28 01:35:19;;;;;;;10.15;9.23;;;;;;;18.52;91.56;94819.16;5143796;27;20223;-68
2023/06/28 01:37:46;;;;;;;10.40;9.50;;;;;;;18.47;91.72;94822.03;5145098;27;20281;-68
2023/06/28 01:40:16;;;;;;;10.60;9.60;;;;;;;18.36;92.66;94827.06;5141991;27;20223;-68
2023/06/28 01:42:43;;;;;;;10.80;10.00;;;;;;;18.32;93.11;94826.44;5143989;27;20246;-67
2023/06/28 01:45:11;;;;;;;11.00;10.07;;;;;;;18.30;93.04;94823.19;5136837;27;20220;-68
2023/06/28 01:47:37;;;;;;;10.40;9.52;;;;;;;18.40;92.90;94827.69;5144903;27;20195;-67
2023/06/28 01:50:06;;;;;;;15.38;10.32;;;;;;;18.40;92.55;94827.69;5144620;27;20317;-67
2023/06/28 01:52:33;;;;;;;14.82;10.32;;;;;;;18.40;92.73;94827.69;5146129;27;20255;-67
2023/06/28 01:54:59;;;;;;;12.75;11.63;;;;;;;18.39;93.02;94829.44;5143809;27;20283;-68
2023/06/28 01:57:27;;;;;;;11.77;10.32;;;;;;;18.29;92.80;94831.81;5144775;27;20206;-68
2023/06/28 01:59:54;;;;;;;11.32;10.35;;;;;;;18.36;92.71;94829.63;5144990;27;20276;-67
2023/06/28 02:02:21;;;;;;;11.25;10.13;;;;;;;18.39;91.97;94828.63;5142963;27;20196;-67
2023/06/28 02:04:48;;;;;;;11.15;10.27;;;;;;;18.40;91.44;94836.22;5144267;27;20207;-67
2023/06/28 02:07:15;;;;;;;12.30;11.38;;;;;;;18.40;91.38;94840.56;5143389;27;20292;-68
2023/06/28 02:09:41;;;;;;;11.98;10.98;;;;;;;18.42;90.88;94836.13;5146062;27;20195;-67
2023/06/28 02:12:08;;;;;;;13.13;12.05;;;;;;;18.31;91.16;94836.88;5142536;27;20246;-68
2023/06/28 02:14:39;;;;;;;12.40;11.43;;;;;;;18.29;91.58;94843.88;5143966;27;20215;-67
2023/06/28 02:17:13;;;;;;;12.65;11.68;;;;;;;18.24;92.05;94849.31;5141853;27;20200;-67
2023/06/28 02:19:40;;;;;;;12.98;11.80;;;;;;;18.40;91.60;94846.53;5145098;27;20203;-68
2023/06/28 02:22:07;;;;;;;13.65;11.90;;;;;;;18.42;91.39;94851.56;5147456;27;20648;-68
2023/06/28 02:24:34;;;;;;;12.85;11.75;;;;;;;18.48;91.05;94846.84;5144458;27;20721;-67
2023/06/28 02:27:01;;;;;;;13.18;12.07;;;;;;;18.62;90.25;94851.06;5145895;27;20196;-67
2023/06/28 02:29:28;;;;;;;12.90;11.93;;;;;;;18.80;88.87;94854.97;5144370;27;20199;-67
2023/06/28 02:31:56;;;;;;;12.15;11.15;;;;;;;19.07;87.84;94851.38;5143766;27;20195;-67
2023/06/28 02:34:23;;;;;;;12.23;11.40;;;;;;;19.23;87.15;94852.78;5144010;27;20215;-67
2023/06/28 02:36:49;;;;;;;13.50;12.30;;;;;;;19.41;85.95;94850.66;5145079;27;20310;-68
2023/06/28 02:39:16;;;;;;;12.15;10.93;;;;;;;19.70;84.79;94846.81;5142432;27;20670;-67
2023/06/28 02:41:42;;;;;;;12.43;11.18;;;;;;;19.74;84.54;94847.44;5142842;27;20638;-68
2023/06/28 02:44:09;;;;;;;11.57;10.88;;;;;;;19.84;83.96;94842.41;5142971;27;20195;-68
2023/06/28 02:46:36;;;;;;;11.02;10.18;;;;;;;19.90;83.16;94841.97;5144990;27;20196;-68
2023/06/28 02:49:04;;;;;;;11.70;10.75;;;;;;;19.80;83.86;94846.97;5142922;27;20665;-67
2023/06/28 02:51:31;;;;;;;13.38;10.82;;;;;;;19.75;84.35;94856.81;5142428;27;20281;-67
2023/06/28 02:53:57;;;;;;;12.02;10.98;;;;;;;19.67;84.98;94857.34;5144354;27;20255;-67
2023/06/28 02:56:25;;;;;;;12.05;11.00;;;;;;;19.65;85.46;94848.91;5147219;27;20299;-67
2023/06/28 02:58:52;;;;;;;13.75;11.15;;;;;;;19.79;84.78;94853.09;5147849;27;20208;-67
2023/06/28 03:01:20;;;;;;;12.25;11.13;;;;;;;19.73;84.73;94847.53;5148859;27;20204;-67
2023/06/28 03:03:47;;;;;;;13.15;11.38;;;;;;;19.76;84.67;94857.63;5147880;27;20195;-67
2023/06/28 03:06:15;;;;;;;11.88;10.45;;;;;;;19.88;84.02;94854.16;5148626;27;20220;-67
2023/06/28 03:08:42;;;;;;;11.98;11.07;;;;;;;19.89;84.01;94860.94;5148006;27;20192;-68
2023/06/28 03:11:09;;;;;;;12.18;11.18;;;;;;;19.91;83.96;94861.66;5146891;27;20275;-67
2023/06/28 03:13:35;;;;;;;12.57;11.45;;;;;;;20.02;83.34;94857.38;5148350;27;20245;-68
2023/06/28 03:16:02;;;;;;;12.43;10.65;;;;;;;20.18;82.44;94859.63;5148345;27;20341;-67
2023/06/28 03:18:29;;;;;;;12.80;11.88;;;;;;;20.24;81.83;94856.59;5145229;27;20192;-67
2023/06/28 03:20:55;;;;;;;12.65;11.75;;;;;;;20.16;82.50;94858.91;5145611;27;20235;-67
2023/06/28 03:23:23;;;;;;;13.80;11.45;;;;;;;20.16;82.41;94845.19;5147335;27;20196;-67
2023/06/28 03:25:51;;;;;;;12.52;11.52;;;;;;;20.06;83.21;94842.47;5148333;27;20228;-67
2023/06/28 03:28:18;;;;;;;13.68;12.45;;;;;;;19.99;83.56;94843.88;5147290;27;20692;-67
2023/06/28 03:30:45;;;;;;;17.95;12.50;;;;;;;19.93;83.76;94852.06;5149090;27;20618;-68
2023/06/28 03:33:11;;;;;;;13.35;12.25;;;;;;;19.78;84.63;94848.03;5148614;27;20231;-68
2023/06/28 03:35:38;;;;;;;12.57;11.57;;;;;;;19.85;84.75;94854.38;5146736;27;20777;-68
2023/06/28 03:38:05;;;;;;;12.95;11.65;;;;;;;20.13;83.50;94863.47;5145576;27;20197;-68
2023/06/28 03:40:33;;;;;;;11.77;10.75;;;;;;;20.31;82.60;94857.75;5144648;27;20683;-68
2023/06/28 03:42:59;;;;;;;12.23;11.25;;;;;;;20.46;81.63;94855.00;5143554;27;20266;-68
2023/06/28 03:45:26;;;;;;;13.32;12.23;;;;;;;20.62;80.85;94853.72;5146174;27;20230;-69
2023/06/28 03:47:53;;;;;;;18.23;15.43;;;;;;;20.68;80.28;94862.78;5148065;27;20280;-68
2023/06/28 03:50:19;;;;;;;19.75;17.80;;;;;;;20.72;79.58;94851.28;5145022;27;20203;-68
2023/06/28 03:52:46;;;;;;;16.75;15.23;;;;;;;20.69;79.30;94852.31;5148703;27;20264;-68
2023/06/28 03:55:13;;;;;;;20.83;17.80;;;;;;;20.58;80.04;94852.31;5147303;27;20812;-68
2023/06/28 03:57:41;;;;;;;26.95;21.70;;;;;;;20.47;80.65;94854.91;5149156;27;20203;-68
2023/06/28 04:00:10;;;;;;;18.33;13.20;;;;;;;20.57;79.99;94852.41;5146229;27;20680;-68
2023/06/28 04:02:37;;;;;;;15.75;13.43;;;;;;;20.63;79.59;94844.22;5148278;27;20598;-68
2023/06/28 04:05:05;;;;;;;17.70;15.35;;;;;;;20.61;79.77;94843.50;5146238;27;20221;-68
2023/06/28 04:07:32;;;;;;;29.15;21.75;;;;;;;20.66;79.66;94846.56;5144362;27;20207;-67
2023/06/28 04:09:58;;;;;;;37.45;32.55;;;;;;;20.71;79.61;94855.63;5144950;27;20434;-68
2023/06/28 04:12:25;;;;;;;19.05;17.15;;;;;;;20.95;78.87;94859.81;5147049;27;20200;-67
2023/06/28 04:14:53;;;;;;;36.08;30.80;;;;;;;21.01;78.66;94856.78;5145701;27;20263;-67
2023/06/28 04:17:20;;;;;;;17.73;15.93;;;;;;;21.31;77.40;94861.31;5146575;27;20294;-68
2023/06/28 04:19:46;;;;;;;16.52;14.82;;;;;;;21.33;77.08;94852.50;5145842;27;20205;-68
2023/06/28 04:22:13;;;;;;;15.63;14.23;;;;;;;21.37;77.10;94853.09;5150124;27;20204;-67
2023/06/28 04:24:40;;;;;;;21.38;17.27;;;;;;;21.45;76.45;94858.47;5146048;27;20204;-67
2023/06/28 04:27:07;;;;;;;20.60;18.50;;;;;;;21.57;76.26;94854.91;5147919;27;20227;-69
2023/06/28 04:29:33;;;;;;;17.80;16.05;;;;;;;21.61;76.50;94856.28;5146125;27;20232;-68
2023/06/28 04:32:02;;;;;;;35.53;30.08;;;;;;;21.71;76.37;94852.03;5149508;27;20230;-68
2023/06/28 04:34:29;;;;;;;18.88;17.17;;;;;;;21.94;75.46;94855.34;5146577;27;20248;-67
2023/06/28 04:36:58;;;;;;;14.98;13.57;;;;;;;22.04;75.28;94852.84;5145603;27;20208;-68
2023/06/28 04:39:24;;;;;;;16.75;14.55;;;;;;;22.23;74.60;94860.75;5145652;27;20571;-67
2023/06/28 04:41:52;;;;;;;15.25;13.85;;;;;;;22.39;73.73;94858.53;5144440;27;20204;-67
2023/06/28 04:44:19;;;;;;;14.15;12.85;;;;;;;22.54;73.32;94859.00;5147622;27;20195;-67
2023/06/28 04:46:47;;;;;;;14.00;12.75;;;;;;;22.78;72.23;94853.56;5145135;27;20226;-68
2023/06/28 04:49:15;;;;;;;15.77;14.38;;;;;;;22.84;72.21;94863.41;5146822;27;20231;-68
2023/06/28 04:51:42;;;;;;;14.68;13.30;;;;;;;22.89;72.41;94861.25;5145498;27;20215;-67
2023/06/28 04:54:08;;;;;;;19.00;16.90;;;;;;;23.05;71.29;94871.94;5146491;27;20200;-68
2023/06/28 04:56:37;;;;;;;20.10;16.15;;;;;;;23.23;70.61;94873.91;5146160;27;20247;-68
2023/06/28 04:59:04;;;;;;;15.63;14.27;;;;;;;23.36;70.29;94874.47;5146980;27;20206;-68
2023/06/28 05:01:30;;;;;;;14.32;13.00;;;;;;;23.50;69.66;94875.91;5144780;27;20311;-67
2023/06/28 05:03:57;;;;;;;13.75;12.65;;;;;;;23.79;68.20;94868.16;5146765;27;20207;-68
2023/06/28 05:06:25;;;;;;;16.45;13.07;;;;;;;23.88;68.04;94864.75;5145209;27;20306;-69
2023/06/28 05:08:52;;;;;;;13.15;12.02;;;;;;;24.02;67.40;94872.94;5147729;27;20282;-67
2023/06/28 05:11:19;;;;;;;13.98;12.73;;;;;;;24.20;67.34;94870.47;5146365;27;20227;-68
2023/06/28 05:13:45;;;;;;;13.82;12.63;;;;;;;24.33;66.78;94868.41;5146371;27;20200;-68
2023/06/28 05:16:12;;;;;;;12.80;11.80;;;;;;;24.55;65.59;94863.84;5143995;27;20231;-69
2023/06/28 05:18:39;;;;;;;14.38;13.10;;;;;;;24.61;65.53;94877.13;5145924;27;20288;-68
2023/06/28 05:21:05;;;;;;;14.30;12.93;;;;;;;24.55;65.85;94874.25;5144523;27;20263;-68
2023/06/28 05:23:33;;;;;;;14.25;12.93;;;;;;;24.44;66.02;94866.63;5144178;27;20195;-67
2023/06/28 05:26:00;;;;;;;15.77;14.07;;;;;;;24.46;66.38;94870.72;5145068;27;20652;-67
2023/06/28 05:28:27;;;;;;;14.32;13.23;;;;;;;24.55;66.10;94871.66;5141682;27;20264;-68
2023/06/28 05:30:53;;;;;;;15.65;14.05;;;;;;;24.62;66.13;94867.53;5144321;27;20204;-68
2023/06/28 05:33:20;;;;;;;15.52;13.30;;;;;;;24.69;65.67;94866.03;5146637;27;20218;-68
2023/06/28 05:35:48;;;;;;;14.02;12.82;;;;;;;24.75;65.27;94860.22;5143610;27;20310;-69
2023/06/28 05:38:15;;;;;;;15.23;14.00;;;;;;;24.90;64.41;94865.81;5146041;27;20280;-68
2023/06/28 05:40:43;;;;;;;15.65;14.38;;;;;;;25.03;63.90;94864.53;5143202;27;20583;-67
2023/06/28 05:43:10;;;;;;;14.40;13.20;;;;;;;25.32;62.88;94873.97;5144690;27;20681;-68
2023/06/28 05:45:37;;;;;;;15.18;13.70;;;;;;;25.73;61.39;94868.28;5142950;27;20200;-68
2023/06/28 05:48:04;;;;;;;16.95;13.07;;;;;;;26.18;59.76;94864.75;5146358;27;20588;-70
2023/06/28 05:50:30;;;;;;;14.65;13.35;;;;;;;26.70;58.37;94875.25;5142741;27;20200;-69
2023/06/28 05:52:57;;;;;;;15.02;13.77;;;;;;;27.48;56.15;94868.09;5145253;27;20226;-70
2023/06/28 05:55:23;;;;;;;14.82;12.63;;;;;;;28.35;53.24;94864.19;5144788;27;20247;-69
2023/06/28 05:57:51;;;;;;;13.45;12.45;;;;;;;29.30;50.41;94863.31;5146489;27;20634;-68
2023/06/28 06:00:20;;;;;;;12.90;11.70;;;;;;;30.17;48.76;94871.88;5144792;27;20200;-68
2023/06/28 06:02:47;;;;;;;13.48;12.38;;;;;;;30.63;47.08;94866.56;5143421;27;20192;-68
2023/06/28 06:05:13;;;;;;;13.40;12.30;;;;;;;30.34;48.08;94868.13;5144412;27;20711;-67
2023/06/28 06:07:40;;;;;;;14.50;13.07;;;;;;;29.89;48.68;94862.88;5147789;27;20283;-68
2023/06/28 06:10:08;;;;;;;13.38;12.38;;;;;;;29.77;48.34;94867.66;5144276;27;20195;-67
2023/06/28 06:12:35;;;;;;;14.10;12.90;;;;;;;30.00;47.59;94854.59;5147764;27;20282;-69
2023/06/28 06:15:05;;;;;;;13.38;12.18;;;;;;;30.19;46.73;94859.38;5145449;27;20206;-69
2023/06/28 06:17:31;;;;;;;12.93;11.85;;;;;;;30.60;44.91;94862.50;5145988;27;20203;-68
2023/06/28 06:19:58;;;;;;;12.93;11.65;;;;;;;31.31;43.48;94860.28;5144662;27;20227;-67
2023/06/28 06:22:25;;;;;;;11.20;10.32;;;;;;;32.96;40.25;94851.34;5146658;27;20282;-68
2023/06/28 06:24:51;;;;;;;11.18;10.32;;;;;;;34.79;36.69;94850.22;5143830;27;20634;-69
2023/06/28 06:27:19;;;;;;;11.23;9.63;;;;;;;36.46;33.42;94850.09;5143705;27;21613;-68
2023/06/28 06:29:45;;;;;;;10.73;9.98;;;;;;;37.97;31.03;94843.41;5144360;27;20200;-68
2023/06/28 06:32:13;;;;;;;12.32;11.10;;;;;;;39.30;28.90;94848.19;5143552;27;20203;-69
2023/06/28 06:34:40;;;;;;;12.23;11.18;;;;;;;40.26;27.25;94851.91;5141305;27;20195;-68
2023/06/28 06:37:11;;;;;;;10.82;9.85;;;;;;;41.05;25.79;94848.16;5141899;27;20215;-68
2023/06/28 06:39:38;;;;;;;11.35;10.43;;;;;;;41.53;26.22;94843.97;5145559;27;20202;-68
2023/06/28 06:42:05;;;;;;;9.73;8.80;;;;;;;41.67;25.41;94842.56;5142369;27;20215;-69
2023/06/28 06:44:32;;;;;;;12.13;10.75;;;;;;;42.23;24.69;94848.50;5145301;27;20299;-69
2023/06/28 06:46:59;;;;;;;13.27;11.93;;;;;;;42.75;23.96;94854.00;5142959;27;20689;-69
2023/06/28 06:49:27;;;;;;;11.52;10.38;;;;;;;42.88;23.76;94842.09;5144777;27;20195;-70
2023/06/28 06:51:54;;;;;;;12.55;11.02;;;;;;;43.30;23.58;94843.97;5142805;27;20251;-70
2023/06/28 06:54:20;;;;;;;10.70;10.02;;;;;;;43.18;23.26;94851.34;5147493;27;20200;-69
2023/06/28 06:56:47;;;;;;;11.98;10.73;;;;;;;43.21;23.37;94840.97;5141620;27;20219;-69
2023/06/28 06:59:16;;;;;;;11.00;10.05;;;;;;;42.86;23.38;94849.56;5146161;27;20644;-69
2023/06/28 07:01:43;;;;;;;10.02;8.88;;;;;;;42.11;23.93;94837.94;5144594;27;20240;-70
2023/06/28 07:04:09;;;;;;;10.05;9.25;;;;;;;42.33;24.26;94843.22;5146723;27;20200;-70
2023/06/28 07:06:38;;;;;;;10.32;9.35;;;;;;;41.69;24.48;94845.78;5141528;27;20741;-69
2023/06/28 07:09:04;;;;;;;9.60;8.82;;;;;;;40.26;26.49;94842.06;5146505;27;20201;-68
2023/06/28 07:11:31;;;;;;;10.07;9.32;;;;;;;39.98;26.55;94842.13;5141960;27;20204;-68
2023/06/28 07:13:58;;;;;;;10.73;9.80;;;;;;;39.71;27.14;94839.19;5142788;27;20204;-68
2023/06/28 07:16:24;;;;;;;10.88;9.60;;;;;;;37.82;29.72;94845.69;5141113;27;20265;-69
2023/06/28 07:18:51;;;;;;;11.07;10.00;;;;;;;35.13;34.23;94840.41;5145894;27;20215;-68
2023/06/28 07:21:18;;;;;;;9.77;9.07;;;;;;;34.57;35.82;94846.16;5141330;27;20203;-68
2023/06/28 07:23:46;;;;;;;9.85;8.93;;;;;;;35.51;33.43;94843.13;5145054;27;20358;-69
2023/06/28 07:26:14;;;;;;;10.45;9.55;;;;;;;34.71;35.59;94841.69;5141165;27;20192;-69
2023/06/28 07:28:41;;;;;;;11.68;9.48;;;;;;;35.62;34.16;94839.03;5143917;27;20211;-68
2023/06/28 07:31:08;;;;;;;9.90;9.20;;;;;;;37.66;30.32;94837.28;5142028;27;20220;-69
2023/06/28 07:33:35;;;;;;;9.88;9.05;;;;;;;37.66;30.07;94842.59;5144932;27;20257;-68
2023/06/28 07:36:02;;;;;;;9.40;8.80;;;;;;;36.05;32.77;94841.84;5140187;27;20791;-69
2023/06/28 07:38:28;;;;;;;11.05;9.48;;;;;;;34.16;35.55;94846.31;5144815;27;20735;-68
2023/06/28 07:40:56;;;;;;;10.35;9.38;;;;;;;32.75;38.62;94852.22;5143166;27;20200;-68
2023/06/28 07:43:23;;;;;;;10.18;9.23;;;;;;;31.82;40.29;94853.22;5141830;27;20291;-69
2023/06/28 07:45:51;;;;;;;9.48;8.88;;;;;;;31.37;40.24;94854.28;5145039;27;20220;-68
2023/06/28 07:48:18;;;;;;;8.80;7.93;;;;;;;31.18;41.25;94849.63;5149133;27;20230;-68
2023/06/28 07:50:47;;;;;;;15.15;8.55;;;;;;;31.33;40.94;94858.28;5144646;27;20210;-67
2023/06/28 07:53:13;;;;;;;8.70;8.13;;;;;;;32.39;38.72;94849.72;5146004;27;20207;-68
2023/06/28 07:55:40;;;;;;;8.90;8.00;;;;;;;33.51;36.10;94842.50;5146030;27;20227;-68
2023/06/28 07:58:08;;;;;;;7.47;6.88;;;;;;;34.33;34.39;94860.78;5147216;27;20215;-67
2023/06/28 08:00:35;;;;;;;7.90;7.40;;;;;;;35.02;33.34;94862.97;5144367;27;20199;-67
2023/06/28 08:03:02;;;;;;;8.23;7.22;;;;;;;35.17;33.08;94852.16;5140877;27;20636;-64
2023/06/28 08:05:29;;;;;;;7.68;7.18;;;;;;;35.96;32.26;94848.41;5143022;27;20322;-67
2023/06/28 08:07:56;;;;;;;8.13;7.18;;;;;;;37.24;29.91;94848.81;5143563;27;20196;-66
2023/06/28 08:10:23;;;;;;;8.15;7.35;;;;;;;39.36;26.63;94842.72;5146484;27;20243;-70
2023/06/28 08:12:50;;;;;;;9.27;8.57;;;;;;;40.12;25.38;94843.41;5147854;27;20204;-69
2023/06/28 08:15:19;;;;;;;11.63;8.98;;;;;;;37.97;27.50;94848.72;5147445;27;20231;-69
2023/06/28 08:17:46;;;;;;;11.68;10.40;;;;;;;35.21;31.60;94842.00;5145107;27;20254;-68
2023/06/28 08:20:12;;;;;;;10.90;10.05;;;;;;;33.30;34.87;94850.53;5148389;27;20204;-67
2023/06/28 08:22:39;;;;;;;11.35;10.25;;;;;;;32.22;37.09;94840.44;5146679;27;20204;-66
2023/06/28 08:25:06;;;;;;;13.18;10.00;;;;;;;31.42;38.61;94841.44;5147421;27;20232;-66
2023/06/28 08:27:33;;;;;;;14.75;9.15;;;;;;;31.26;40.06;94836.38;5147278;27;20240;-66
2023/06/28 08:30:00;;;;;;;10.70;9.52;;;;;;;31.46;39.04;94832.16;5147353;27;20203;-67
2023/06/28 08:32:28;;;;;;;10.43;9.27;;;;;;;31.49;39.39;94826.53;5145360;27;20236;-66
2023/06/28 08:34:54;;;;;;;11.68;10.48;;;;;;;31.16;40.04;94825.34;5146804;27;20676;-64
2023/06/28 08:37:21;;;;;;;12.32;10.05;;;;;;;30.99;39.96;94825.50;5145633;27;20231;-67
2023/06/28 08:39:48;;;;;;;12.80;8.65;;;;;;;31.42;39.71;94825.69;5144516;27;20206;-66
2023/06/28 08:42:17;;;;;;;15.05;8.95;;;;;;;34.10;33.93;94818.94;5139819;27;20576;-66
2023/06/28 08:44:48;;;;;;;10.90;8.15;;;;;;;37.21;28.86;94820.09;5147004;27;20278;-66
2023/06/28 08:47:14;;;;;;;8.60;7.70;;;;;;;39.76;25.45;94810.84;5143932;27;20228;-65
2023/06/28 08:49:44;;;;;;;8.20;7.50;;;;;;;41.37;23.43;94821.63;5146183;27;20191;-65
2023/06/28 08:52:11;;;;;;;7.30;6.60;;;;;;;42.39;21.87;94820.84;5143865;27;20219;-66
2023/06/28 08:54:39;;;;;;;10.88;7.47;;;;;;;43.26;21.20;94821.47;5143894;27;20203;-68
2023/06/28 08:57:07;;;;;;;7.07;6.57;;;;;;;43.89;20.68;94803.47;5143654;27;20268;-66
2023/06/28 08:59:33;;;;;;;7.32;6.93;;;;;;;44.39;19.90;94803.56;5144359;27;20212;-67
2023/06/28 09:02:01;;;;;;;7.03;6.53;;;;;;;44.55;19.76;94796.31;5141097;27;20669;-67
2023/06/28 09:04:28;;;;;;;8.23;7.45;;;;;;;44.10;19.94;94808.63;5145869;27;20584;-65
2023/06/28 09:06:57;;;;;;;7.47;6.97;;;;;;;43.71;20.22;94805.59;5144920;27;20723;-66
2023/06/28 09:09:25;;;;;;;7.38;6.63;;;;;;;43.76;20.27;94805.63;5143983;27;20199;-66
2023/06/28 09:11:52;;;;;;;9.40;8.43;;;;;;;44.36;19.71;94793.34;5142295;27;20201;-67
2023/06/28 09:14:19;;;;;;;19.52;17.80;;;;;;;44.68;19.34;94800.31;5145383;27;20207;-66
2023/06/28 09:16:46;;;;;;;16.70;14.82;;;;;;;44.61;19.34;94794.44;5142665;27;20224;-66
2023/06/28 09:19:13;;;;;;;18.60;16.77;;;;;;;44.16;19.42;94797.91;5145822;27;20195;-67
2023/06/28 09:21:41;;;;;;;16.27;14.68;;;;;;;43.59;19.99;94791.59;5140430;27;20196;-67
2023/06/28 09:24:13;;;;;;;10.75;9.95;;;;;;;42.97;20.19;94789.75;5140379;27;20218;-67
2023/06/28 09:26:42;;;;;;;10.35;9.57;;;;;;;42.50;21.22;94786.22;5145297;27;20278;-67
2023/06/28 09:29:10;;;;;;;11.02;9.88;;;;;;;42.10;21.52;94782.13;5144505;27;20238;-67
2023/06/28 09:31:40;;;;;;;9.23;8.40;;;;;;;41.64;21.74;94779.00;5146006;27;20207;-66
2023/06/28 09:34:07;;;;;;;8.82;8.30;;;;;;;41.65;22.38;94788.63;5145164;27;20214;-66
2023/06/28 09:36:35;;;;;;;9.13;8.43;;;;;;;41.43;22.57;94785.16;5140445;27;20289;-66
2023/06/28 09:39:04;;;;;;;8.45;7.95;;;;;;;40.95;22.51;94786.69;5143908;27;20196;-68
2023/06/28 09:41:40;;;;;;;9.50;8.68;;;;;;;40.00;23.44;94778.81;5146560;27;20206;-67
2023/06/28 09:44:09;;;;;;;10.02;9.23;;;;;;;39.32;24.67;94782.31;5141526;27;20207;-66
2023/06/28 09:46:36;;;;;;;8.73;7.80;;;;;;;38.51;25.42;94785.84;5147745;27;20200;-67
2023/06/28 09:49:02;;;;;;;9.93;9.00;;;;;;;37.28;27.61;94783.72;5140919;27;20292;-67
2023/06/28 09:51:29;;;;;;;10.23;9.38;;;;;;;35.87;29.49;94778.31;5146424;27;20216;-68
2023/06/28 09:53:58;;;;;;;9.93;9.13;;;;;;;34.95;30.62;94776.88;5145096;27;20204;-67
2023/06/28 09:56:34;;;;;;;10.63;8.10;;;;;;;34.29;32.04;94785.69;5145321;27;20214;-67
2023/06/28 09:59:06;;;;;;;9.82;9.00;;;;;;;33.67;33.17;94792.06;5145571;27;20218;-67
2023/06/28 10:01:36;;;;;;;10.15;9.27;;;;;;;33.39;33.81;94783.50;5143039;27;20196;-66
2023/06/28 10:04:06;;;;;;;9.55;8.77;;;;;;;33.16;34.55;94780.38;5145645;27;20199;-66
2023/06/28 10:06:36;;;;;;;9.18;8.50;;;;;;;33.10;34.84;94774.88;5141203;27;20714;-66
2023/06/28 10:09:03;;;;;;;8.52;7.93;;;;;;;32.81;35.44;94769.06;5146212;27;20231;-67
2023/06/28 10:11:32;;;;;;;9.32;8.52;;;;;;;32.40;36.24;94768.00;5144441;27;20227;-66
2023/06/28 10:14:00;;;;;;;8.43;7.60;;;;;;;31.97;36.80;94766.41;5145312;27;20198;-66
2023/06/28 10:16:32;;;;;;;8.65;8.05;;;;;;;31.34;38.48;94775.88;5143483;27;20256;-67
2023/06/28 10:19:00;;;;;;;9.70;8.38;;;;;;;31.24;38.66;94770.09;5148304;27;20295;-67
2023/06/28 10:21:27;;;;;;;9.05;8.45;;;;;;;31.49;38.43;94763.50;5144011;27;20200;-67
2023/06/28 10:23:55;;;;;;;8.90;8.18;;;;;;;31.61;37.92;94762.03;5146720;27;20664;-66
2023/06/28 10:26:22;;;;;;;8.50;7.90;;;;;;;31.58;37.99;94770.28;5143381;27;20217;-66
2023/06/28 10:28:50;;;;;;;10.20;9.23;;;;;;;31.39;38.08;94770.88;5146347;27;20223;-67
2023/06/28 10:31:18;;;;;;;11.48;8.82;;;;;;;31.08;39.14;94765.84;5142711;27;20247;-68
2023/06/28 10:33:46;;;;;;;9.88;9.02;;;;;;;30.70;39.41;94768.59;5144326;27;20733;-67
2023/06/28 10:36:13;;;;;;;8.93;8.32;;;;;;;30.20;40.62;94771.06;5144359;27;20275;-66
2023/06/28 10:38:43;;;;;;;8.52;7.93;;;;;;;29.81;41.66;94771.22;5145918;27;20643;-66
2023/06/28 10:41:10;;;;;;;8.68;8.07;;;;;;;29.67;41.39;94773.63;5144332;27;20208;-67
2023/06/28 10:43:37;;;;;;;8.90;8.20;;;;;;;29.62;42.27;94765.47;5144298;27;20672;-66
2023/06/28 10:46:03;;;;;;;9.63;8.82;;;;;;;29.60;41.91;94764.84;5143536;27;20222;-66
2023/06/28 10:48:31;;;;;;;8.05;7.55;;;;;;;29.50;42.53;94759.00;5145406;27;20191;-66
2023/06/28 10:51:05;;;;;;;8.50;7.88;;;;;;;29.24;43.36;94761.09;5144269;27;20271;-66
2023/06/28 10:53:32;;;;;;;9.43;8.50;;;;;;;28.99;43.98;94761.22;5145597;27;20668;-66
2023/06/28 10:56:10;;;;;;;7.95;7.43;;;;;;;28.83;44.63;94763.94;5147767;27;20200;-66
2023/06/28 10:58:38;;;;;;;9.27;7.65;;;;;;;28.92;44.60;94756.88;5144261;27;20720;-66
2023/06/28 11:01:07;;;;;;;8.55;7.82;;;;;;;29.13;44.25;94757.09;5147043;27;20286;-67
2023/06/28 11:03:44;;;;;;;7.75;6.95;;;;;;;29.16;43.66;94767.22;5144647;27;20203;-66
2023/06/28 11:06:14;;;;;;;8.50;7.75;;;;;;;28.89;44.05;94763.25;5146874;27;20276;-66
2023/06/28 11:08:43;;;;;;;7.95;7.32;;;;;;;28.55;44.79;94760.88;5146167;27;20276;-66
2023/06/28 11:11:11;;;;;;;8.63;7.75;;;;;;;28.22;45.41;94761.94;5145807;27;20200;-66
2023/06/28 11:13:48;;;;;;;8.55;7.75;;;;;;;28.02;45.73;94771.91;5146432;27;20211;-66
2023/06/28 11:16:21;;;;;;;8.10;7.40;;;;;;;27.88;45.90;94749.88;5145363;27;20207;-67
2023/06/28 11:18:49;;;;;;;7.43;6.95;;;;;;;28.07;45.78;94764.41;5149006;27;20219;-68
2023/06/28 11:21:18;;;;;;;7.75;7.25;;;;;;;28.20;45.61;94759.53;5148776;27;20257;-68
2023/06/28 11:23:47;;;;;;;9.48;8.10;;;;;;;28.32;45.78;94763.41;5151391;27;20208;-66
2023/06/28 11:26:16;;;;;;;8.15;7.35;;;;;;;28.35;44.68;94762.25;5146055;27;20223;-66